Lykers, New York
Current Conditions -  °F | °C
As of 6:55 AM on Sunday 21 Dec 2014 (Local Time) from KNY0 Reporting Station
Overcast Overcast  
Wind Chill: 23°   Ceiling: 2000
Heat Index: 23°   Visibility: 10mi
Dew Point: 20°   Wind: 3mph
Humidity: 87%   Direction: 210°SSW
Pressure: 30.28"   Gusts: NA
Location:  42.8384°N, 74.4592°W
Report Text: KNY0 211155Z AUTO 21003KT 10SM OVC020 M05/M07 A3028 RMK AO2 T10481067 11047 21050
Loading
Personal Weather Stations






























Interactive Weather Map New forecast layout! Learn more

10-Day Weather Forecast

Advertisements
Track Severe Weather on mobile